Time;durP1;ratioP1;P1;durP2;ratioP2;P2;SDS_P1;SDS_P2;PMS_P1;PMS_P2;Temp;Humidity;BMP_temperature;BMP_pressure;BME280_temperature;BME280_humidity;BME280_pressure;Samples;Min_cycle;Max_cycle;Signal;HPM_P1;HPM_P2
2022/01/02 00:00:25;;;;;;;11.02;6.30;;;11.80;99.90;;;;;;5005649;28;20052;-80
2022/01/02 00:02:53;;;;;;;10.48;6.60;;;11.80;99.90;;;;;;5020177;28;20366;-79
2022/01/02 00:05:22;;;;;;;9.65;6.40;;;11.80;99.90;;;;;;5012261;28;20429;-80
2022/01/02 00:08:02;;;;;;;9.43;6.30;;;11.80;99.90;;;;;;5012361;28;20041;-80
2022/01/02 00:10:32;;;;;;;13.00;6.45;;;11.80;99.90;;;;;;5010160;28;20825;-80
2022/01/02 00:13:00;;;;;;;8.90;6.30;;;11.80;99.90;;;;;;5041897;28;20044;-80
2022/01/02 00:15:27;;;;;;;9.52;6.55;;;11.90;99.90;;;;;;5011959;28;20093;-80
2022/01/02 00:17:56;;;;;;;12.30;6.55;;;11.90;99.90;;;;;;5023514;28;20399;-80
2022/01/02 00:20:32;;;;;;;13.13;7.00;;;11.80;99.90;;;;;;5014022;28;20107;-80
2022/01/02 00:23:05;;;;;;;10.25;6.93;;;11.80;99.90;;;;;;5022650;28;20029;-80
2022/01/02 00:25:39;;;;;;;10.45;6.43;;;11.80;99.90;;;;;;5004901;28;20050;-80
2022/01/02 00:28:11;;;;;;;11.82;6.75;;;11.90;99.90;;;;;;5008585;28;20033;-80
2022/01/02 00:30:37;;;;;;;13.07;7.40;;;11.90;99.90;;;;;;4992914;28;20061;-80
2022/01/02 00:33:03;;;;;;;10.23;6.68;;;11.90;99.90;;;;;;5003041;28;20041;-80
2022/01/02 00:35:29;;;;;;;13.52;7.70;;;11.90;99.90;;;;;;5008268;28;20060;-80
2022/01/02 00:37:56;;;;;;;13.45;7.47;;;11.90;99.90;;;;;;5033867;28;20389;-80
2022/01/02 00:40:23;;;;;;;13.60;7.55;;;11.90;99.90;;;;;;5004392;28;20503;-80
2022/01/02 00:43:02;;;;;;;10.93;6.47;;;11.90;99.90;;;;;;5017742;28;20041;-80
2022/01/02 00:45:31;;;;;;;12.45;7.47;;;11.90;99.90;;;;;;5017269;28;20040;-80
2022/01/02 00:48:08;;;;;;;13.63;8.23;;;11.90;99.90;;;;;;5015704;28;20036;-80
2022/01/02 00:50:37;;;;;;;14.38;7.07;;;11.90;99.90;;;;;;5038265;28;20108;-80
2022/01/02 00:53:05;;;;;;;15.20;7.30;;;11.90;99.90;;;;;;5019101;28;20030;-80
2022/01/02 00:55:34;;;;;;;11.32;7.25;;;12.00;99.90;;;;;;5035935;28;20037;-80
2022/01/02 00:58:02;;;;;;;14.32;7.68;;;12.00;99.90;;;;;;5010639;28;20048;-80
2022/01/02 01:00:29;;;;;;;12.82;7.70;;;12.00;99.90;;;;;;5010466;28;20140;-80
2022/01/02 01:02:58;;;;;;;13.32;7.47;;;12.00;99.90;;;;;;5022798;28;20060;-80
2022/01/02 01:05:30;;;;;;;13.60;7.32;;;12.00;99.90;;;;;;5019985;28;20048;-80
2022/01/02 01:08:08;;;;;;;15.73;7.90;;;12.00;99.90;;;;;;5013915;28;20037;-80
2022/01/02 01:10:38;;;;;;;17.83;7.60;;;12.00;99.90;;;;;;5010097;28;20041;-80
2022/01/02 01:13:08;;;;;;;19.17;7.43;;;11.90;99.90;;;;;;5012548;28;20040;-80
2022/01/02 01:15:35;;;;;;;13.82;7.78;;;11.90;99.90;;;;;;5019445;28;20361;-80
2022/01/02 01:18:03;;;;;;;12.88;7.32;;;12.00;99.90;;;;;;4995711;28;20049;-80
2022/01/02 01:20:38;;;;;;;13.25;7.53;;;12.00;99.90;;;;;;5018696;28;20037;-80
2022/01/02 01:23:11;;;;;;;15.70;8.38;;;12.00;99.90;;;;;;4994451;28;20041;-80
2022/01/02 01:25:39;;;;;;;13.27;7.72;;;12.00;99.90;;;;;;5010051;28;20033;-80
2022/01/02 01:28:07;;;;;;;14.52;7.60;;;12.00;99.90;;;;;;5012930;28;20120;-80
2022/01/02 01:30:33;;;;;;;15.85;7.95;;;12.00;99.90;;;;;;5005464;28;20068;-80
2022/01/02 01:32:58;;;;;;;13.68;8.15;;;12.00;99.90;;;;;;5001582;28;20041;-80
2022/01/02 01:35:24;;;;;;;14.15;8.35;;;12.00;99.90;;;;;;5010166;28;20449;-80
2022/01/02 01:37:50;;;;;;;15.05;8.38;;;12.00;99.90;;;;;;5034991;28;20029;-80
2022/01/02 01:40:22;;;;;;;15.88;8.25;;;12.00;99.90;;;;;;5033430;28;20525;-80
2022/01/02 01:42:59;;;;;;;13.27;8.45;;;12.00;99.90;;;;;;5007885;28;20512;-80
2022/01/02 01:45:29;;;;;;;14.93;8.63;;;12.00;99.90;;;;;;4989935;28;20069;-80
2022/01/02 01:48:02;;;;;;;18.52;8.55;;;12.00;99.90;;;;;;5012332;28;20563;-80
2022/01/02 01:50:38;;;;;;;16.75;9.13;;;11.90;99.90;;;;;;5014855;28;20408;-80
2022/01/02 01:53:04;;;;;;;16.38;8.80;;;11.90;99.90;;;;;;5003744;28;20297;-79
2022/01/02 01:55:32;;;;;;;14.32;9.15;;;11.90;99.90;;;;;;5015910;28;20041;-80
2022/01/02 01:57:59;;;;;;;14.30;8.23;;;11.90;99.90;;;;;;4993483;28;20477;-80
2022/01/02 02:00:25;;;;;;;15.27;8.90;;;11.90;99.90;;;;;;5001204;28;20120;-80
2022/01/02 02:02:51;;;;;;;16.67;8.63;;;11.90;99.90;;;;;;5005519;28;20123;-80
2022/01/02 02:05:17;;;;;;;15.35;9.27;;;11.90;99.90;;;;;;4999341;28;20036;-80
2022/01/02 02:07:45;;;;;;;16.80;9.45;;;11.90;99.90;;;;;;5007623;28;20098;-80
2022/01/02 02:10:35;;;;;;;21.70;9.48;;;11.90;99.90;;;;;;4999431;28;20040;-80
2022/01/02 02:13:03;;;;;;;19.63;9.63;;;11.90;99.90;;;;;;5034806;28;20416;-80
2022/01/02 02:15:28;;;;;;;17.48;9.45;;;11.90;99.90;;;;;;4993757;28;20140;-80
2022/01/02 02:17:54;;;;;;;17.55;9.70;;;11.90;99.90;;;;;;5010251;28;20504;-80
2022/01/02 02:20:24;;;;;;;15.80;9.30;;;11.90;99.90;;;;;;5012892;28;20048;-80
2022/01/02 02:22:53;;;;;;;17.42;9.65;;;11.90;99.90;;;;;;5006630;28;20048;-80
2022/01/02 02:25:21;;;;;;;20.55;10.35;;;11.90;99.90;;;;;;5012010;28;20424;-80
2022/01/02 02:28:08;;;;;;;18.60;10.38;;;11.90;99.90;;;;;;5007870;28;20138;-80
2022/01/02 02:30:37;;;;;;;17.73;9.95;;;11.90;99.90;;;;;;4990592;28;20048;-80
2022/01/02 02:33:04;;;;;;;17.23;10.13;;;11.90;99.90;;;;;;5016725;28;20037;-80
2022/01/02 02:35:35;;;;;;;17.83;9.88;;;11.90;99.90;;;;;;5018465;28;20053;-80
2022/01/02 02:38:01;;;;;;;19.98;10.32;;;11.90;99.90;;;;;;5011692;28;20033;-80
2022/01/02 02:40:29;;;;;;;16.73;9.07;;;11.90;99.90;;;;;;5019609;28;20045;-80
2022/01/02 02:43:01;;;;;;;20.10;10.40;;;11.90;99.90;;;;;;5013102;28;20067;-80
2022/01/02 02:51:07;;;;;;;20.52;11.15;;;11.90;99.90;;;;;;5021127;28;20049;-80
2022/01/02 02:53:41;;;;;;;20.00;10.50;;;11.90;99.90;;;;;;5002435;28;20070;-80
2022/01/02 02:56:40;;;;;;;22.45;10.93;;;11.80;99.90;;;;;;5021401;28;20052;-80
2022/01/02 02:58:56;;;;;;;18.58;10.20;;;11.90;99.90;;;;;;5020868;28;20045;-80
2022/01/02 03:01:23;;;;;;;24.85;10.40;;;11.90;99.90;;;;;;4997589;28;20632;-80
2022/01/02 03:03:49;;;;;;;20.35;10.60;;;11.90;99.90;;;;;;5004730;28;20711;-80
2022/01/02 03:06:16;;;;;;;18.67;10.75;;;11.90;99.90;;;;;;5003413;28;20140;-80
2022/01/02 03:08:44;;;;;;;21.88;11.85;;;11.90;99.90;;;;;;5014639;28;20040;-80
2022/01/02 03:11:14;;;;;;;22.92;10.82;;;11.90;99.90;;;;;;5021331;28;20041;-80
2022/01/02 03:13:41;;;;;;;22.85;10.85;;;11.90;99.90;;;;;;5003668;28;20037;-80
2022/01/02 03:16:07;;;;;;;23.55;11.02;;;11.90;99.90;;;;;;5036565;28;20044;-80
2022/01/02 03:18:33;;;;;;;21.15;10.93;;;11.90;99.90;;;;;;5006921;28;20029;-80
2022/01/02 03:20:59;;;;;;;18.85;10.85;;;11.90;99.90;;;;;;5005210;28;20482;-80
2022/01/02 03:23:24;;;;;;;19.88;10.35;;;11.90;99.90;;;;;;5004490;28;20333;-80
2022/01/02 03:25:50;;;;;;;23.00;10.63;;;11.90;99.90;;;;;;5023996;28;20041;-80
2022/01/02 03:28:15;;;;;;;17.65;9.90;;;11.90;99.90;;;;;;5008717;28;20633;-80
2022/01/02 03:30:45;;;;;;;18.80;10.32;;;11.90;99.90;;;;;;5005904;28;20132;-80
2022/01/02 03:33:11;;;;;;;22.35;10.35;;;11.90;99.90;;;;;;5005922;28;20040;-80
2022/01/02 03:35:37;;;;;;;20.95;9.93;;;11.90;99.90;;;;;;5020174;28;20053;-80
2022/01/02 03:38:04;;;;;;;18.23;10.45;;;12.00;99.90;;;;;;5021654;28;20239;-80
2022/01/02 03:40:29;;;;;;;23.88;10.70;;;12.00;99.90;;;;;;5013681;28;20033;-80
2022/01/02 03:42:55;;;;;;;21.42;10.27;;;12.00;99.90;;;;;;5036600;28;20044;-80
2022/01/02 03:45:24;;;;;;;16.90;9.63;;;12.00;99.90;;;;;;5020052;28;20079;-80
2022/01/02 03:47:50;;;;;;;22.58;10.52;;;12.10;99.90;;;;;;5023711;28;20048;-80
2022/01/02 03:50:16;;;;;;;23.40;10.00;;;12.10;99.90;;;;;;5044218;28;20463;-80
2022/01/02 03:52:41;;;;;;;19.17;9.82;;;12.10;99.90;;;;;;5012596;28;20381;-80
2022/01/02 03:55:08;;;;;;;22.83;10.70;;;12.10;99.90;;;;;;5012501;28;20033;-80
2022/01/02 03:57:34;;;;;;;19.77;10.15;;;12.10;99.90;;;;;;5012338;28;20047;-80
2022/01/02 04:00:00;;;;;;;21.80;9.77;;;12.10;99.90;;;;;;5020835;28;20045;-80
2022/01/02 04:02:29;;;;;;;17.70;10.10;;;12.10;99.90;;;;;;5015586;28;20656;-80
2022/01/02 04:04:54;;;;;;;22.05;10.57;;;12.20;99.90;;;;;;5013347;28;20102;-80
2022/01/02 04:07:20;;;;;;;17.20;9.27;;;12.20;99.90;;;;;;5008364;28;20053;-80
2022/01/02 04:09:46;;;;;;;18.85;9.40;;;12.30;99.90;;;;;;5015371;28;20107;-80
2022/01/02 04:12:12;;;;;;;20.98;9.23;;;12.40;99.90;;;;;;5003183;28;20411;-80
2022/01/02 04:14:37;;;;;;;15.82;8.25;;;12.30;99.90;;;;;;5016129;28;20564;-80
2022/01/02 04:17:03;;;;;;;20.65;8.38;;;12.40;99.90;;;;;;5020637;28;20530;-80
2022/01/02 04:19:29;;;;;;;15.80;7.43;;;12.40;99.90;;;;;;5016659;28;20095;-80
2022/01/02 04:21:54;;;;;;;18.42;7.72;;;12.40;99.90;;;;;;5026014;28;20071;-80
2022/01/02 04:24:20;;;;;;;17.23;8.27;;;12.40;99.90;;;;;;5001723;28;20415;-79
2022/01/02 04:26:45;;;;;;;16.10;8.27;;;12.40;99.90;;;;;;5006353;28;20480;-80
2022/01/02 04:29:11;;;;;;;17.10;7.90;;;12.40;99.90;;;;;;5011273;28;20045;-80
2022/01/02 04:31:37;;;;;;;17.05;8.23;;;12.40;99.90;;;;;;5019225;28;20037;-80
2022/01/02 04:34:03;;;;;;;19.80;8.32;;;12.30;99.90;;;;;;5017979;28;20621;-80
2022/01/02 04:36:29;;;;;;;16.40;7.95;;;12.30;99.90;;;;;;5020390;28;20041;-80
2022/01/02 04:38:55;;;;;;;19.23;8.32;;;12.30;99.90;;;;;;5007468;28;20037;-80
2022/01/02 04:41:20;;;;;;;17.98;7.60;;;12.30;99.90;;;;;;5011134;28;20078;-80
2022/01/02 04:43:46;;;;;;;14.30;7.07;;;12.30;99.90;;;;;;5017537;28;20777;-80
2022/01/02 04:46:13;;;;;;;18.55;7.50;;;12.30;99.90;;;;;;5008515;28;20138;-79
2022/01/02 04:48:39;;;;;;;15.82;7.57;;;12.30;99.90;;;;;;5002489;28;20460;-79
2022/01/02 04:51:04;;;;;;;17.63;7.25;;;12.30;99.90;;;;;;5019225;28;20048;-80
2022/01/02 04:53:31;;;;;;;15.77;7.60;;;12.40;99.90;;;;;;5001091;28;20040;-80
2022/01/02 04:55:56;;;;;;;21.55;8.13;;;12.40;99.90;;;;;;5010515;28;20029;-80
2022/01/02 04:58:22;;;;;;;18.90;7.90;;;12.30;99.90;;;;;;5013573;28;20040;-80
2022/01/02 05:00:47;;;;;;;15.63;7.55;;;12.40;99.90;;;;;;5017085;28;20041;-80
2022/01/02 05:03:13;;;;;;;20.15;7.85;;;12.40;99.90;;;;;;5032979;28;20049;-80
2022/01/02 05:05:39;;;;;;;19.70;7.78;;;12.40;99.90;;;;;;5023216;28;20107;-80
2022/01/02 05:08:05;;;;;;;17.70;8.07;;;12.30;99.90;;;;;;5015223;28;20049;-80
2022/01/02 05:10:30;;;;;;;17.02;7.88;;;12.40;99.90;;;;;;5018737;28;20044;-80
2022/01/02 05:12:56;;;;;;;17.60;7.75;;;12.40;99.90;;;;;;5016169;28;20033;-80
2022/01/02 05:15:22;;;;;;;21.52;7.55;;;12.30;99.90;;;;;;5033869;28;20161;-80
2022/01/02 05:17:48;;;;;;;18.67;7.28;;;12.40;99.90;;;;;;5015830;28;20029;-80
2022/01/02 05:20:13;;;;;;;13.60;7.25;;;12.40;99.90;;;;;;5019918;28;20033;-80
2022/01/02 05:22:39;;;;;;;18.23;6.95;;;12.30;99.90;;;;;;5006965;28;20037;-80
2022/01/02 05:25:08;;;;;;;18.70;8.00;;;12.40;99.90;;;;;;5015228;28;20148;-80
2022/01/02 05:27:34;;;;;;;19.40;7.85;;;12.30;99.90;;;;;;5022338;28;20587;-80
2022/01/02 05:30:00;;;;;;;17.90;7.05;;;12.30;99.90;;;;;;4998585;28;20506;-80
2022/01/02 05:32:25;;;;;;;17.25;6.70;;;12.40;99.90;;;;;;4996930;28;20488;-80
2022/01/02 05:34:51;;;;;;;14.82;7.25;;;12.40;99.90;;;;;;5003665;28;20041;-80
2022/01/02 05:37:16;;;;;;;17.02;6.78;;;12.40;99.90;;;;;;4996007;28;20463;-80
2022/01/02 05:39:42;;;;;;;15.50;6.88;;;12.40;99.90;;;;;;4993638;28;20045;-80
2022/01/02 05:42:08;;;;;;;16.10;6.72;;;12.40;99.90;;;;;;4980603;28;20060;-80
2022/01/02 05:44:34;;;;;;;16.73;6.78;;;12.40;99.90;;;;;;5016238;28;20289;-80
2022/01/02 05:47:00;;;;;;;19.98;7.35;;;12.40;99.90;;;;;;5001612;28;20029;-80
2022/01/02 05:49:25;;;;;;;17.42;6.65;;;12.40;99.90;;;;;;4991356;28;20508;-80
2022/01/02 05:51:51;;;;;;;15.55;6.55;;;12.40;99.90;;;;;;5002555;28;20045;-80
2022/01/02 05:54:17;;;;;;;23.15;7.13;;;12.40;99.90;;;;;;4999376;28;20125;-80
2022/01/02 05:56:42;;;;;;;18.83;6.78;;;12.40;99.90;;;;;;4997705;28;20065;-80
2022/01/02 05:59:08;;;;;;;20.45;6.55;;;12.40;99.90;;;;;;4993721;28;20428;-80
2022/01/02 06:01:34;;;;;;;17.60;7.05;;;12.40;99.90;;;;;;4993998;28;20040;-79
2022/01/02 06:04:00;;;;;;;15.85;6.57;;;12.40;99.90;;;;;;5015937;28;20131;-80
2022/01/02 06:06:29;;;;;;;15.55;7.10;;;12.40;99.90;;;;;;4999448;28;20124;-80
2022/01/02 06:08:54;;;;;;;17.35;6.60;;;12.40;99.90;;;;;;4984478;28;20041;-80
2022/01/02 06:11:20;;;;;;;15.95;6.50;;;12.40;99.90;;;;;;4991194;28;20041;-80
2022/01/02 06:13:46;;;;;;;12.98;6.15;;;12.40;99.90;;;;;;4999081;28;20109;-80
2022/01/02 06:16:12;;;;;;;16.27;6.63;;;12.50;99.90;;;;;;4994084;28;20334;-80
2022/01/02 06:18:38;;;;;;;22.15;6.93;;;12.50;99.90;;;;;;4997830;28;20034;-80
2022/01/02 06:21:04;;;;;;;18.50;6.47;;;12.40;99.90;;;;;;4994777;28;20041;-80
2022/01/02 06:23:32;;;;;;;14.43;6.20;;;12.50;99.90;;;;;;4992981;28;20029;-80
2022/01/02 06:25:58;;;;;;;16.30;6.75;;;12.50;99.90;;;;;;4998847;28;20167;-80
2022/01/02 06:28:23;;;;;;;16.85;5.90;;;12.50;99.90;;;;;;4992362;28;21578;-80
2022/01/02 06:30:49;;;;;;;19.67;7.07;;;12.50;99.90;;;;;;4981555;28;20041;-80
2022/01/02 06:33:15;;;;;;;14.10;6.55;;;12.50;99.90;;;;;;4989965;28;20076;-80
2022/01/02 06:35:40;;;;;;;16.20;6.00;;;12.60;99.90;;;;;;5016794;28;20052;-80
2022/01/02 06:38:15;;;;;;;11.57;5.60;;;12.60;99.90;;;;;;5016477;28;20048;-80
2022/01/02 06:40:40;;;;;;;11.07;5.40;;;12.60;99.90;;;;;;5003994;28;20037;-80
2022/01/02 06:43:06;;;;;;;14.80;5.80;;;12.60;99.90;;;;;;5012703;28;20501;-80
2022/01/02 06:45:32;;;;;;;17.95;5.75;;;12.60;99.90;;;;;;5009661;28;20036;-80
2022/01/02 06:47:59;;;;;;;12.95;5.47;;;12.60;99.90;;;;;;5025010;28;21708;-80
2022/01/02 06:50:24;;;;;;;20.50;6.10;;;12.60;99.90;;;;;;5002164;28;20116;-80
2022/01/02 06:52:50;;;;;;;14.57;4.85;;;12.60;99.90;;;;;;5002199;28;20025;-80
2022/01/02 06:55:16;;;;;;;10.07;4.60;;;12.70;99.90;;;;;;5032092;28;20042;-80
2022/01/02 06:57:41;;;;;;;15.13;4.05;;;12.70;99.90;;;;;;5013070;28;20458;-80
2022/01/02 07:00:07;;;;;;;11.88;4.57;;;12.70;99.90;;;;;;5020396;28;20040;-80
2022/01/02 07:02:33;;;;;;;12.48;5.07;;;12.70;99.90;;;;;;5006395;28;20064;-80
2022/01/02 07:04:59;;;;;;;11.38;4.32;;;12.80;99.90;;;;;;5013285;28;20045;-80
2022/01/02 07:07:25;;;;;;;9.98;4.45;;;12.70;99.90;;;;;;5020093;28;20066;-80
2022/01/02 07:09:51;;;;;;;11.65;4.03;;;12.80;99.90;;;;;;5014798;28;21247;-80
2022/01/02 07:12:16;;;;;;;12.63;4.55;;;12.80;99.90;;;;;;5018584;28;20098;-80
2022/01/02 07:14:45;;;;;;;12.23;4.72;;;12.80;99.90;;;;;;4993454;28;20029;-80
2022/01/02 07:17:11;;;;;;;9.98;3.90;;;12.80;99.90;;;;;;4997795;28;20603;-80
2022/01/02 07:19:37;;;;;;;11.80;4.25;;;12.80;99.90;;;;;;5001032;28;20219;-80
2022/01/02 07:22:05;;;;;;;10.18;3.40;;;12.90;99.90;;;;;;5018870;28;20337;-80
2022/01/02 07:24:31;;;;;;;10.30;3.70;;;12.90;99.90;;;;;;4994727;28;20124;-80
2022/01/02 07:26:56;;;;;;;9.40;3.63;;;12.90;99.90;;;;;;5033284;28;20368;-80
2022/01/02 07:29:22;;;;;;;11.25;3.80;;;12.90;99.90;;;;;;4998393;28;20054;-80
2022/01/02 07:31:48;;;;;;;11.27;4.03;;;12.90;99.90;;;;;;5018348;28;20517;-80
2022/01/02 07:34:14;;;;;;;11.20;3.92;;;12.80;99.90;;;;;;4993383;28;20293;-80
2022/01/02 07:36:44;;;;;;;10.40;3.92;;;12.80;99.90;;;;;;5017722;28;20084;-80
2022/01/02 07:39:10;;;;;;;9.30;4.10;;;12.70;99.90;;;;;;5019061;28;20049;-80
2022/01/02 07:41:36;;;;;;;9.60;3.78;;;12.70;99.90;;;;;;5015154;28;20218;-80
2022/01/02 07:44:04;;;;;;;9.52;4.10;;;12.70;99.90;;;;;;5014997;28;20195;-80
2022/01/02 07:46:33;;;;;;;11.25;4.18;;;12.60;99.90;;;;;;5015682;28;20429;-80
2022/01/02 07:48:59;;;;;;;10.75;4.07;;;12.60;99.90;;;;;;5012473;28;20543;-80
2022/01/02 07:51:24;;;;;;;10.02;4.38;;;12.60;99.90;;;;;;4996658;28;20116;-80
2022/01/02 07:53:50;;;;;;;10.23;4.30;;;12.60;99.90;;;;;;5032844;28;20041;-80
2022/01/02 07:56:15;;;;;;;14.75;4.25;;;12.50;99.90;;;;;;4998291;28;20037;-80
2022/01/02 07:58:42;;;;;;;9.82;3.92;;;12.50;99.90;;;;;;5013284;28;20245;-80
2022/01/02 08:01:07;;;;;;;9.70;4.00;;;12.50;99.90;;;;;;5009634;28;20040;-80
2022/01/02 08:03:33;;;;;;;6.95;4.10;;;12.50;99.90;;;;;;5018159;28;20045;-80
2022/01/02 08:05:59;;;;;;;10.45;4.28;;;12.40;99.90;;;;;;5008006;28;20048;-80
2022/01/02 08:08:24;;;;;;;11.10;4.60;;;12.40;99.90;;;;;;5011651;28;20055;-79
2022/01/02 08:10:50;;;;;;;11.73;4.80;;;12.40;99.90;;;;;;4999253;28;20459;-80
2022/01/02 08:13:16;;;;;;;10.98;4.57;;;12.40;99.90;;;;;;5020880;28;20040;-80
2022/01/02 08:15:43;;;;;;;12.00;4.45;;;12.40;99.90;;;;;;5018792;28;20047;-80
2022/01/02 08:18:13;;;;;;;8.60;4.50;;;12.40;99.90;;;;;;5003974;28;20091;-80
2022/01/02 08:20:40;;;;;;;8.95;4.47;;;12.40;99.90;;;;;;5036797;28;20280;-80
2022/01/02 08:23:06;;;;;;;9.50;4.50;;;12.30;99.90;;;;;;5016067;28;20369;-80
2022/01/02 08:25:31;;;;;;;8.57;5.00;;;12.30;99.90;;;;;;5021299;28;20041;-80
2022/01/02 08:27:57;;;;;;;8.35;4.55;;;12.30;99.90;;;;;;5015558;28;20064;-80
2022/01/02 08:30:22;;;;;;;13.02;4.80;;;12.30;99.90;;;;;;5017466;28;20136;-80
2022/01/02 08:32:48;;;;;;;12.10;5.13;;;12.30;99.90;;;;;;5018669;28;20119;-80
2022/01/02 08:35:16;;;;;;;10.07;5.35;;;12.30;99.90;;;;;;5014900;28;20053;-80
2022/01/02 08:37:42;;;;;;;9.00;5.15;;;12.20;99.90;;;;;;5018401;28;20405;-80
2022/01/02 08:40:08;;;;;;;9.13;4.68;;;12.20;99.90;;;;;;5012534;28;20036;-80
2022/01/02 08:42:34;;;;;;;11.20;5.05;;;12.20;99.90;;;;;;4999020;28;20064;-80
2022/01/02 08:45:00;;;;;;;10.73;5.28;;;12.20;99.90;;;;;;5021439;28;20484;-80
2022/01/02 08:47:26;;;;;;;9.48;5.15;;;12.20;99.90;;;;;;5016498;28;20151;-80
2022/01/02 08:49:51;;;;;;;10.27;5.15;;;12.20;99.90;;;;;;5040056;28;20037;-80
2022/01/02 08:52:18;;;;;;;9.20;5.28;;;12.20;99.90;;;;;;5021885;28;20037;-80
2022/01/02 08:54:44;;;;;;;10.00;4.90;;;12.20;99.90;;;;;;5001168;28;20029;-80
2022/01/02 08:57:10;;;;;;;11.88;5.43;;;12.20;99.90;;;;;;5003410;28;20029;-80
2022/01/02 08:59:39;;;;;;;11.35;5.07;;;12.10;99.90;;;;;;5002095;28;20076;-80
2022/01/02 09:02:04;;;;;;;8.55;4.78;;;12.20;99.90;;;;;;5016390;28;20098;-80
2022/01/02 09:04:30;;;;;;;11.48;4.80;;;12.10;99.90;;;;;;5011683;28;20037;-80
2022/01/02 09:06:56;;;;;;;8.82;5.18;;;12.10;99.90;;;;;;5021942;28;20051;-80
2022/01/02 09:09:21;;;;;;;10.63;4.63;;;12.20;99.90;;;;;;5015155;28;20480;-80
2022/01/02 09:11:47;;;;;;;9.32;5.35;;;12.20;99.90;;;;;;5013998;28;20038;-80
2022/01/02 09:14:13;;;;;;;9.10;4.90;;;12.20;99.90;;;;;;5000095;28;20503;-80
2022/01/02 09:16:44;;;;;;;14.77;5.38;;;12.10;99.90;;;;;;5015954;28;20029;-80
2022/01/02 09:19:10;;;;;;;10.23;5.38;;;12.10;99.90;;;;;;5016856;28;20113;-80
2022/01/02 09:21:36;;;;;;;9.02;5.15;;;12.10;99.90;;;;;;5015018;28;20452;-80
2022/01/02 09:24:04;;;;;;;10.32;5.20;;;12.10;99.90;;;;;;4994646;28;20053;-80
2022/01/02 09:26:30;;;;;;;8.00;5.28;;;12.10;99.90;;;;;;5005383;28;20487;-80
2022/01/02 09:28:56;;;;;;;10.02;4.95;;;12.10;99.90;;;;;;5014270;28;20063;-80
2022/01/02 09:31:22;;;;;;;13.25;5.80;;;12.20;99.90;;;;;;5012211;28;20060;-80
2022/01/02 09:33:48;;;;;;;13.98;5.50;;;12.20;99.90;;;;;;5015421;28;20041;-80
2022/01/02 09:36:14;;;;;;;13.40;5.53;;;12.20;99.90;;;;;;5008225;28;20063;-80
2022/01/02 09:38:42;;;;;;;12.10;5.35;;;12.10;99.90;;;;;;5013916;28;20443;-80
2022/01/02 09:41:08;;;;;;;12.10;5.78;;;12.10;99.90;;;;;;5037215;28;20068;-80
2022/01/02 09:43:34;;;;;;;9.00;5.68;;;12.10;99.90;;;;;;5012766;28;20045;-80
2022/01/02 09:45:59;;;;;;;8.48;5.53;;;12.20;99.90;;;;;;5015027;28;20033;-80
2022/01/02 09:48:27;;;;;;;11.43;5.55;;;12.20;99.90;;;;;;5020427;28;20092;-80
2022/01/02 09:50:53;;;;;;;8.95;5.38;;;12.20;99.90;;;;;;5000230;28;20115;-80
2022/01/02 09:53:18;;;;;;;8.55;5.43;;;12.20;99.90;;;;;;5008141;28;20120;-80
2022/01/02 09:55:44;;;;;;;15.23;5.05;;;12.20;99.90;;;;;;5011952;28;20064;-80
2022/01/02 09:58:14;;;;;;;9.73;5.68;;;12.20;99.90;;;;;;4997038;28;20155;-80
2022/01/02 10:00:43;;;;;;;13.45;5.53;;;12.20;99.90;;;;;;5014605;28;20045;-80
2022/01/02 10:03:10;;;;;;;11.05;6.20;;;12.30;99.90;;;;;;4994360;28;20049;-80
2022/01/02 10:06:01;;;;;;;9.13;5.80;;;12.20;99.90;;;;;;5016352;28;20045;-80
2022/01/02 10:08:28;;;;;;;10.63;5.60;;;12.20;99.90;;;;;;5001486;28;20052;-80
2022/01/02 10:10:59;;;;;;;8.13;5.82;;;12.20;99.90;;;;;;5012882;28;20468;-80
2022/01/02 10:13:51;;;;;;;9.32;5.90;;;12.30;99.90;;;;;;5014143;28;20045;-80
2022/01/02 10:16:29;;;;;;;13.20;5.70;;;12.30;99.90;;;;;;5037654;28;20033;-80
2022/01/02 10:18:55;;;;;;;9.55;5.88;;;12.40;99.90;;;;;;5019752;28;20033;-80
2022/01/02 10:21:37;;;;;;;14.25;6.30;;;12.40;99.90;;;;;;5005485;28;20603;-80
2022/01/02 10:24:09;;;;;;;10.93;5.45;;;12.30;99.90;;;;;;5033383;28;20088;-80
2022/01/02 10:26:35;;;;;;;12.05;6.00;;;12.40;99.90;;;;;;5016531;28;20438;-80
2022/01/02 10:29:09;;;;;;;9.90;6.38;;;12.40;99.90;;;;;;5012005;28;20143;-80
2022/01/02 10:31:35;;;;;;;10.82;6.55;;;12.40;99.90;;;;;;5010544;28;20059;-80
2022/01/02 10:34:01;;;;;;;11.23;6.22;;;12.40;99.90;;;;;;5015450;28;20500;-80
2022/01/02 10:36:33;;;;;;;9.13;6.00;;;12.40;99.90;;;;;;5011237;28;20048;-80
2022/01/02 10:39:07;;;;;;;15.80;6.68;;;12.40;99.90;;;;;;4997647;28;20036;-80
2022/01/02 10:42:00;;;;;;;14.68;7.03;;;12.40;99.90;;;;;;4999089;28;20596;-80
2022/01/02 10:44:26;;;;;;;12.40;6.90;;;12.40;99.90;;;;;;5010500;28;20165;-80
2022/01/02 10:47:14;;;;;;;14.07;6.50;;;12.40;99.90;;;;;;5013926;28;20567;-80
2022/01/02 10:50:08;;;;;;;13.60;6.63;;;12.40;99.90;;;;;;5019481;28;20033;-80
2022/01/02 10:52:40;;;;;;;12.60;7.18;;;12.40;99.90;;;;;;5004343;28;20337;-80
2022/01/02 10:55:20;;;;;;;12.93;6.50;;;12.50;99.90;;;;;;5005030;28;20041;-80
2022/01/02 10:57:52;;;;;;;10.60;6.20;;;12.50;99.90;;;;;;5017097;28;20051;-80
2022/01/02 11:00:20;;;;;;;14.48;6.60;;;12.50;99.90;;;;;;5015196;28;20564;-80
2022/01/02 11:02:46;;;;;;;11.93;6.22;;;12.50;99.90;;;;;;5038031;28;20261;-80
2022/01/02 11:05:14;;;;;;;11.95;6.13;;;12.50;99.90;;;;;;5004464;28;20077;-80
2022/01/02 11:07:46;;;;;;;12.40;6.50;;;12.50;99.90;;;;;;5003583;28;20033;-80
2022/01/02 11:10:21;;;;;;;13.85;5.47;;;12.50;99.90;;;;;;4994186;28;20127;-80
2022/01/02 11:12:51;;;;;;;11.85;5.60;;;12.50;99.90;;;;;;5012231;28;20122;-80
2022/01/02 11:15:19;;;;;;;11.65;5.72;;;12.50;99.90;;;;;;5010466;28;20473;-80
2022/01/02 11:17:45;;;;;;;10.48;5.05;;;12.50;99.90;;;;;;5013506;28;20052;-80
2022/01/02 11:20:16;;;;;;;9.40;5.15;;;12.60;99.90;;;;;;5035491;28;20345;-80
2022/01/02 11:22:49;;;;;;;12.10;4.95;;;12.60;99.90;;;;;;5002868;28;20255;-80
2022/01/02 11:25:44;;;;;;;9.50;4.93;;;12.60;99.90;;;;;;5030616;28;20557;-80
2022/01/02 11:28:25;;;;;;;7.78;4.38;;;12.60;99.90;;;;;;5014784;28;20124;-80
2022/01/02 11:30:53;;;;;;;11.10;5.03;;;12.60;99.90;;;;;;5009271;28;20049;-80
2022/01/02 11:33:32;;;;;;;14.18;4.90;;;12.60;99.90;;;;;;5014243;28;20155;-80
2022/01/02 11:35:59;;;;;;;11.88;4.80;;;12.50;99.90;;;;;;5016669;28;20049;-80
2022/01/02 11:38:41;;;;;;;8.45;4.80;;;12.60;99.90;;;;;;5012339;28;20033;-80
2022/01/02 11:41:07;;;;;;;8.25;4.30;;;12.60;99.90;;;;;;5016082;28;20883;-80
2022/01/02 11:43:36;;;;;;;13.52;5.40;;;12.60;99.90;;;;;;5023058;28;20040;-80
2022/01/02 11:46:17;;;;;;;9.05;4.82;;;12.60;99.90;;;;;;5040230;28;20041;-80
2022/01/02 11:49:13;;;;;;;12.80;5.53;;;12.50;99.90;;;;;;5012700;28;20048;-80
2022/01/02 11:51:48;;;;;;;13.05;4.75;;;12.50;99.90;;;;;;5020342;28;20075;-80
2022/01/02 11:54:43;;;;;;;14.73;6.25;;;12.50;99.90;;;;;;5016899;28;20033;-80
2022/01/02 11:57:14;;;;;;;13.70;4.57;;;12.50;99.90;;;;;;5017395;28;20110;-80
2022/01/02 11:59:40;;;;;;;11.00;4.28;;;12.50;99.90;;;;;;5020001;28;20208;-80
2022/01/02 12:02:18;;;;;;;11.13;4.30;;;12.50;99.90;;;;;;5018639;28;20084;-80
2022/01/02 12:05:00;;;;;;;11.27;4.28;;;12.50;99.90;;;;;;5017612;28;20166;-80
2022/01/02 12:07:35;;;;;;;10.38;4.22;;;12.50;99.90;;;;;;5006700;28;20410;-80
2022/01/02 12:12:56;;;;;;;11.25;4.30;;;12.40;99.90;;;;;;5018723;28;20040;-80
2022/01/02 12:15:35;;;;;;;11.80;3.50;;;12.30;99.90;;;;;;5014523;28;20124;-80
2022/01/02 12:18:16;;;;;;;15.40;5.03;;;12.30;99.90;;;;;;4998656;28;20045;-80
2022/01/02 12:20:56;;;;;;;7.93;3.40;;;12.30;99.90;;;;;;5013294;28;20567;-80
2022/01/02 12:23:34;;;;;;;13.85;3.70;;;12.30;99.90;;;;;;5038409;28;20045;-80
2022/01/02 12:25:59;;;;;;;10.52;3.63;;;12.30;99.90;;;;;;5004962;28;20048;-80
2022/01/02 12:28:27;;;;;;;11.68;3.25;;;12.30;99.90;;;;;;5022479;28;20504;-80
2022/01/02 12:30:53;;;;;;;8.70;3.60;;;12.30;99.90;;;;;;5019213;28;20063;-80
2022/01/02 12:33:27;;;;;;;11.63;3.33;;;12.30;99.90;;;;;;5015571;28;20033;-80
2022/01/02 12:35:52;;;;;;;12.30;3.65;;;12.30;99.90;;;;;;5018364;28;20471;-80
2022/01/02 12:38:18;;;;;;;7.75;2.95;;;12.30;99.90;;;;;;4994373;28;20144;-80
2022/01/02 12:40:45;;;;;;;11.18;3.72;;;12.20;99.90;;;;;;4999518;28;20037;-80
2022/01/02 12:43:11;;;;;;;10.10;3.17;;;12.20;99.90;;;;;;4998581;28;20037;-80
2022/01/02 12:45:38;;;;;;;9.98;3.08;;;12.20;99.90;;;;;;4998953;28;20060;-80
2022/01/02 12:48:04;;;;;;;10.93;3.22;;;12.20;99.90;;;;;;5038435;28;20419;-80
2022/01/02 12:50:33;;;;;;;9.85;3.42;;;12.10;99.90;;;;;;4993705;28;20046;-80
2022/01/02 12:52:59;;;;;;;14.32;2.85;;;12.20;99.90;;;;;;5018011;28;20045;-80